sensor_id;sensor_type;location;lat;lon;timestamp;pressure;altitude;pressure_sealevel;temperature;humidity
68199;BME280;55021;51.554;17.044;2023-10-31T00:14:06;98782.53;;;15.34;94.19
68199;BME280;55021;51.554;17.044;2023-10-31T00:29:16;98738.97;;;15.28;95.81
68199;BME280;55021;51.554;17.044;2023-10-31T00:44:27;98707.63;;;16.11;90.95
68199;BME280;55021;51.554;17.044;2023-10-31T00:59:40;98620.88;;;16.07;88.11
68199;BME280;55021;51.554;17.044;2023-10-31T01:14:48;98675.81;;;16.73;87.44
68199;BME280;55021;51.554;17.044;2023-10-31T01:45:48;98559.25;;;16.44;88.09
68199;BME280;55021;51.554;17.044;2023-10-31T02:01:03;98582.88;;;16.62;88.27
68199;BME280;55021;51.554;17.044;2023-10-31T02:16:09;98516.97;;;16.52;86.31
68199;BME280;55021;51.554;17.044;2023-10-31T02:31:17;98544.72;;;17.05;85.09
68199;BME280;55021;51.554;17.044;2023-10-31T02:46:20;98522.75;;;16.84;84.97
68199;BME280;55021;51.554;17.044;2023-10-31T03:01:23;98515.16;;;17.07;82.20
68199;BME280;55021;51.554;17.044;2023-10-31T03:16:26;98483.25;;;16.46;83.43
68199;BME280;55021;51.554;17.044;2023-10-31T03:47:14;98488.09;;;16.56;84.08
68199;BME280;55021;51.554;17.044;2023-10-31T04:02:24;98474.38;;;15.94;86.55
68199;BME280;55021;51.554;17.044;2023-10-31T04:17:34;98363.06;;;15.73;85.02
68199;BME280;55021;51.554;17.044;2023-10-31T04:32:48;98420.03;;;16.43;83.47
68199;BME280;55021;51.554;17.044;2023-10-31T04:48:05;98361.59;;;16.32;80.45
68199;BME280;55021;51.554;17.044;2023-10-31T05:03:07;98419.16;;;16.92;79.62
68199;BME280;55021;51.554;17.044;2023-10-31T05:18:10;98434.94;;;16.68;80.10
68199;BME280;55021;51.554;17.044;2023-10-31T05:33:14;98415.25;;;15.72;85.21
68199;BME280;55021;51.554;17.044;2023-10-31T05:48:16;98476.19;;;15.09;93.06
68199;BME280;55021;51.554;17.044;2023-10-31T06:03:19;98496.88;;;15.45;94.48
68199;BME280;55021;51.554;17.044;2023-10-31T06:18:21;98519.31;;;15.47;96.04
68199;BME280;55021;51.554;17.044;2023-10-31T06:33:24;98428.94;;;14.04;100.00
68199;BME280;55021;51.554;17.044;2023-10-31T06:48:27;98562.19;;;14.65;100.00
68199;BME280;55021;51.554;17.044;2023-10-31T07:03:30;98559.00;;;14.09;100.00
68199;BME280;55021;51.554;17.044;2023-10-31T07:18:32;98610.78;;;14.27;100.00
68199;BME280;55021;51.554;17.044;2023-10-31T07:33:35;98624.53;;;14.32;100.00
68199;BME280;55021;51.554;17.044;2023-10-31T07:48:38;98565.50;;;13.96;100.00
68199;BME280;55021;51.554;17.044;2023-10-31T08:03:40;98651.06;;;13.70;100.00
68199;BME280;55021;51.554;17.044;2023-10-31T08:18:48;98681.81;;;13.96;100.00
68199;BME280;55021;51.554;17.044;2023-10-31T08:33:52;98678.84;;;14.15;100.00
68199;BME280;55021;51.554;17.044;2023-10-31T08:48:54;98761.59;;;14.21;100.00
68199;BME280;55021;51.554;17.044;2023-10-31T09:03:57;98720.13;;;14.19;100.00
68199;BME280;55021;51.554;17.044;2023-10-31T09:18:59;98814.97;;;14.10;100.00
68199;BME280;55021;51.554;17.044;2023-10-31T09:34:02;98822.69;;;13.39;100.00
68199;BME280;55021;51.554;17.044;2023-10-31T09:49:06;98870.47;;;13.91;100.00
68199;BME280;55021;51.554;17.044;2023-10-31T10:04:09;98849.03;;;13.95;97.67
68199;BME280;55021;51.554;17.044;2023-10-31T10:19:20;98825.38;;;14.38;94.67
68199;BME280;55021;51.554;17.044;2023-10-31T10:34:24;98774.44;;;14.14;92.00
68199;BME280;55021;51.554;17.044;2023-10-31T10:49:28;98926.84;;;14.65;87.98
68199;BME280;55021;51.554;17.044;2023-10-31T11:04:31;98905.78;;;14.04;85.34
68199;BME280;55021;51.554;17.044;2023-10-31T11:19:34;98884.88;;;14.41;79.96
68199;BME280;55021;51.554;17.044;2023-10-31T11:34:38;98956.06;;;14.58;77.92
68199;BME280;55021;51.554;17.044;2023-10-31T11:49:47;98915.09;;;14.39;77.56
68199;BME280;55021;51.554;17.044;2023-10-31T12:04:49;98969.03;;;14.62;74.46
68199;BME280;55021;51.554;17.044;2023-10-31T12:19:56;98937.66;;;14.28;75.08
68199;BME280;55021;51.554;17.044;2023-10-31T12:34:58;99000.53;;;15.01;74.97
68199;BME280;55021;51.554;17.044;2023-10-31T12:50:09;98959.81;;;15.36;72.40
68199;BME280;55021;51.554;17.044;2023-10-31T13:05:12;99004.22;;;14.14;74.61
68199;BME280;55021;51.554;17.044;2023-10-31T13:20:16;98967.31;;;14.86;71.90
68199;BME280;55021;51.554;17.044;2023-10-31T13:35:18;99034.97;;;13.97;74.46
68199;BME280;55021;51.554;17.044;2023-10-31T13:50:20;99033.63;;;13.68;72.23
68199;BME280;55021;51.554;17.044;2023-10-31T14:05:26;99078.91;;;14.07;68.86
68199;BME280;55021;51.554;17.044;2023-10-31T14:20:37;99018.22;;;13.93;69.47
68199;BME280;55021;51.554;17.044;2023-10-31T14:35:40;99083.91;;;14.41;69.76
68199;BME280;55021;51.554;17.044;2023-10-31T14:50:43;99070.81;;;13.94;70.31
68199;BME280;55021;51.554;17.044;2023-10-31T15:05:45;99115.44;;;13.99;72.45
68199;BME280;55021;51.554;17.044;2023-10-31T15:20:48;99109.69;;;13.69;73.70
68199;BME280;55021;51.554;17.044;2023-10-31T15:35:50;99120.81;;;14.12;73.47
68199;BME280;55021;51.554;17.044;2023-10-31T15:50:52;99152.63;;;13.80;75.22
68199;BME280;55021;51.554;17.044;2023-10-31T16:05:55;99163.28;;;13.82;74.71
68199;BME280;55021;51.554;17.044;2023-10-31T16:20:58;99145.75;;;13.58;75.99
68199;BME280;55021;51.554;17.044;2023-10-31T16:36:00;99153.72;;;13.60;75.85
68199;BME280;55021;51.554;17.044;2023-10-31T16:51:03;99176.78;;;13.44;74.60
68199;BME280;55021;51.554;17.044;2023-10-31T17:06:06;99225.97;;;13.30;75.05
68199;BME280;55021;51.554;17.044;2023-10-31T17:21:09;99265.13;;;13.09;76.34
68199;BME280;55021;51.554;17.044;2023-10-31T17:36:11;99283.09;;;12.90;76.95
68199;BME280;55021;51.554;17.044;2023-10-31T17:51:14;99318.38;;;12.71;79.14
68199;BME280;55021;51.554;17.044;2023-10-31T18:06:16;99375.03;;;13.14;78.03
68199;BME280;55021;51.554;17.044;2023-10-31T18:21:19;99382.00;;;12.76;79.43
68199;BME280;55021;51.554;17.044;2023-10-31T18:36:25;99394.09;;;12.67;79.63
68199;BME280;55021;51.554;17.044;2023-10-31T18:51:28;99401.72;;;12.91;78.59
68199;BME280;55021;51.554;17.044;2023-10-31T19:06:30;99432.00;;;12.41;80.96
68199;BME280;55021;51.554;17.044;2023-10-31T19:21:32;99428.06;;;12.50;79.89
68199;BME280;55021;51.554;17.044;2023-10-31T19:36:35;99452.69;;;12.42;80.43
68199;BME280;55021;51.554;17.044;2023-10-31T19:51:37;99436.78;;;12.39;80.04
68199;BME280;55021;51.554;17.044;2023-10-31T20:06:39;99497.09;;;12.83;79.11
68199;BME280;55021;51.554;17.044;2023-10-31T20:21:42;99512.00;;;12.32;80.56
68199;BME280;55021;51.554;17.044;2023-10-31T20:36:44;99517.75;;;12.43;80.01
68199;BME280;55021;51.554;17.044;2023-10-31T20:51:47;99465.22;;;12.09;79.99
68199;BME280;55021;51.554;17.044;2023-10-31T21:06:49;99542.41;;;12.42;80.50
68199;BME280;55021;51.554;17.044;2023-10-31T21:21:51;99536.88;;;12.56;79.27
68199;BME280;55021;51.554;17.044;2023-10-31T21:36:54;99564.03;;;12.78;79.65
68199;BME280;55021;51.554;17.044;2023-10-31T21:52:03;99491.81;;;12.20;79.73
68199;BME280;55021;51.554;17.044;2023-10-31T22:07:08;99598.34;;;13.06;78.83
68199;BME280;55021;51.554;17.044;2023-10-31T22:22:11;99614.72;;;12.57;80.48
68199;BME280;55021;51.554;17.044;2023-10-31T22:37:14;99530.25;;;11.95;81.10
68199;BME280;55021;51.554;17.044;2023-10-31T22:52:16;99636.38;;;12.51;81.29
68199;BME280;55021;51.554;17.044;2023-10-31T23:07:19;99604.47;;;12.17;81.07
68199;BME280;55021;51.554;17.044;2023-10-31T23:22:21;99656.50;;;12.14;82.04
68199;BME280;55021;51.554;17.044;2023-10-31T23:37:24;99677.66;;;12.19;82.36
68199;BME280;55021;51.554;17.044;2023-10-31T23:52:26;99707.28;;;11.99;84.45
